Time;durP1;ratioP1;P1;durP2;ratioP2;P2;SDS_P1;SDS_P2;PMS_P1;PMS_P2;Temp;Humidity;BMP_temperature;BMP_pressure;BME280_temperature;BME280_humidity;BME280_pressure;Samples;Min_cycle;Max_cycle;Signal;HPM_P1;HPM_P2
2024/04/01 00:01:14;;;;;;;20.38;10.95;;;;;;;;;;5032509;28;20499;-66
2024/04/01 00:04:00;;;;;;;21.88;13.57;;;;;;;;;;5048731;22;20052;-67
2024/04/01 00:06:45;;;;;;;24.55;11.98;;;;;;;;;;5052959;28;20029;-67
2024/04/01 00:09:31;;;;;;;18.60;11.80;;;;;;;;;;5050154;28;20021;-65
2024/04/01 00:12:17;;;;;;;21.55;10.68;;;;;;;;;;5050440;28;20226;-65
2024/04/01 00:15:03;;;;;;;20.67;10.40;;;;;;;;;;5039972;28;20029;-65
2024/04/01 00:17:49;;;;;;;21.00;11.93;;;;;;;;;;5024400;28;20026;-65
2024/04/01 00:20:34;;;;;;;21.02;11.68;;;;;;;;;;5013308;28;20022;-65
2024/04/01 00:23:20;;;;;;;25.23;13.05;;;;;;;;;;5012730;28;20030;-65
2024/04/01 00:26:06;;;;;;;19.77;12.02;;;;;;;;;;5019870;28;20530;-65
2024/04/01 00:28:51;;;;;;;22.83;11.57;;;;;;;;;;5027714;28;20430;-65
2024/04/01 00:31:37;;;;;;;23.52;11.55;;;;;;;;;;5032567;28;20037;-65
2024/04/01 00:34:23;;;;;;;16.42;11.07;;;;;;;;;;5031666;28;20096;-65
2024/04/01 00:37:08;;;;;;;18.65;11.13;;;;;;;;;;5036104;28;20025;-65
2024/04/01 00:39:54;;;;;;;18.05;10.35;;;;;;;;;;5022467;28;20125;-65
2024/04/01 00:42:40;;;;;;;18.80;10.63;;;;;;;;;;5029456;28;20056;-65
2024/04/01 00:45:25;;;;;;;16.92;10.65;;;;;;;;;;5035005;28;20021;-65
2024/04/01 00:48:12;;;;;;;17.77;10.77;;;;;;;;;;5019475;28;20573;-65
2024/04/01 00:50:58;;;;;;;20.05;10.82;;;;;;;;;;5016950;28;20049;-65
2024/04/01 00:53:45;;;;;;;16.73;9.40;;;;;;;;;;5019189;28;20112;-65
2024/04/01 00:56:31;;;;;;;21.20;9.73;;;;;;;;;;5028756;28;20398;-65
2024/04/01 00:59:17;;;;;;;25.35;11.18;;;;;;;;;;5031464;28;20022;-65
2024/04/01 01:02:03;;;;;;;21.38;11.15;;;;;;;;;;5036399;28;20049;-65
2024/04/01 01:04:49;;;;;;;17.02;10.15;;;;;;;;;;5034924;28;20021;-65
2024/04/01 01:07:34;;;;;;;22.20;10.60;;;;;;;;;;5022792;28;20065;-65
2024/04/01 01:10:24;;;;;;;21.10;11.18;;;;;;;;;;5018056;28;20054;-65
2024/04/01 01:13:11;;;;;;;15.10;9.30;;;;;;;;;;5033540;28;20079;-65
2024/04/01 01:15:56;;;;;;;20.60;9.82;;;;;;;;;;5033730;28;20025;-65
2024/04/01 01:18:42;;;;;;;18.10;9.52;;;;;;;;;;5035090;28;20395;-65
2024/04/01 01:21:27;;;;;;;18.13;9.82;;;;;;;;;;5032120;28;20061;-65
2024/04/01 01:24:13;;;;;;;21.17;10.40;;;;;;;;;;5035863;28;20024;-65
2024/04/01 01:26:59;;;;;;;17.98;9.75;;;;;;;;;;5034571;28;20036;-65
2024/04/01 01:29:45;;;;;;;21.80;9.10;;;;;;;;;;5035451;28;20446;-65
2024/04/01 01:32:31;;;;;;;24.90;11.15;;;;;;;;;;5035740;28;20116;-65
2024/04/01 01:35:22;;;;;;;19.05;9.90;;;;;;;;;;5035432;28;20582;-64
2024/04/01 01:38:08;;;;;;;23.23;11.63;;;;;;;;;;5035523;28;20071;-65
2024/04/01 01:40:53;;;;;;;21.50;11.38;;;;;;;;;;5035961;28;20022;-65
2024/04/01 01:43:39;;;;;;;21.50;10.93;;;;;;;;;;5035048;28;20513;-65
2024/04/01 01:46:25;;;;;;;19.02;11.38;;;;;;;;;;5034472;28;20028;-65
2024/04/01 01:49:11;;;;;;;16.95;10.38;;;;;;;;;;5035824;28;20025;-65
2024/04/01 01:51:56;;;;;;;19.02;11.57;;;;;;;;;;5036287;28;20033;-65
2024/04/01 01:54:42;;;;;;;23.35;10.50;;;;;;;;;;5036078;28;20022;-65
2024/04/01 01:57:28;;;;;;;16.80;9.60;;;;;;;;;;5035415;28;20044;-65
2024/04/01 02:00:14;;;;;;;18.27;9.77;;;;;;;;;;5035505;28;20083;-65
2024/04/01 02:02:59;;;;;;;24.02;10.43;;;;;;;;;;5035208;28;20087;-65
2024/04/01 02:05:45;;;;;;;27.42;11.82;;;;;;;;;;5035359;28;20056;-65
2024/04/01 02:08:31;;;;;;;21.60;11.77;;;;;;;;;;5035684;28;20498;-67
2024/04/01 02:11:16;;;;;;;28.60;13.40;;;;;;;;;;5034989;28;20565;-68
2024/04/01 02:14:02;;;;;;;26.15;11.45;;;;;;;;;;5034465;28;20102;-68
2024/04/01 02:16:48;;;;;;;25.85;12.38;;;;;;;;;;5035303;28;20088;-68
2024/04/01 02:19:35;;;;;;;22.10;11.38;;;;;;;;;;5034844;28;20088;-68
2024/04/01 02:22:22;;;;;;;26.02;13.23;;;;;;;;;;5047050;28;20538;-68
2024/04/01 02:25:08;;;;;;;27.17;12.13;;;;;;;;;;5033942;28;20040;-68
2024/04/01 02:27:54;;;;;;;29.38;11.98;;;;;;;;;;5034759;28;20483;-68
2024/04/01 02:30:39;;;;;;;26.85;12.82;;;;;;;;;;5034030;28;20025;-68
2024/04/01 02:33:26;;;;;;;24.63;11.52;;;;;;;;;;5034094;28;20104;-68
2024/04/01 02:36:12;;;;;;;27.77;12.02;;;;;;;;;;5035067;28;20479;-68
2024/04/01 02:38:57;;;;;;;26.20;11.68;;;;;;;;;;5034472;28;20091;-68
2024/04/01 02:41:47;;;;;;;29.27;13.18;;;;;;;;;;5034746;28;20494;-68
2024/04/01 02:44:32;;;;;;;20.63;10.52;;;;;;;;;;5035216;28;20025;-68
2024/04/01 02:47:18;;;;;;;26.02;11.57;;;;;;;;;;5034177;28;20483;-68
2024/04/01 02:50:05;;;;;;;22.63;11.93;;;;;;;;;;5034627;28;20109;-68
2024/04/01 02:52:50;;;;;;;20.52;11.45;;;;;;;;;;5032131;28;20030;-68
2024/04/01 02:55:36;;;;;;;25.05;10.20;;;;;;;;;;5026280;28;20403;-67
2024/04/01 02:58:22;;;;;;;23.85;11.85;;;;;;;;;;5023638;28;20037;-68
2024/04/01 03:01:07;;;;;;;22.23;11.10;;;;;;;;;;5027170;28;20030;-68
2024/04/01 03:04:01;;;;;;;23.55;11.43;;;;;;;;;;5014303;28;20029;-68
2024/04/01 03:06:46;;;;;;;29.98;12.10;;;;;;;;;;5014397;28;20555;-68
2024/04/01 03:09:32;;;;;;;22.15;10.77;;;;;;;;;;5018863;28;20056;-68
2024/04/01 03:12:18;;;;;;;25.33;11.60;;;;;;;;;;5014190;28;20037;-68
2024/04/01 03:15:04;;;;;;;23.92;12.93;;;;;;;;;;5018453;28;20037;-67
2024/04/01 03:17:50;;;;;;;30.73;13.20;;;;;;;;;;5013602;28;20033;-68
2024/04/01 03:20:36;;;;;;;34.28;14.68;;;;;;;;;;5018366;28;20060;-68
2024/04/01 03:23:21;;;;;;;27.67;12.57;;;;;;;;;;5029150;28;20104;-68
2024/04/01 03:26:07;;;;;;;28.25;12.10;;;;;;;;;;5032038;28;20410;-68
2024/04/01 03:28:53;;;;;;;28.63;12.68;;;;;;;;;;5032555;28;20021;-67
2024/04/01 03:31:41;;;;;;;27.83;12.93;;;;;;;;;;5033825;28;20033;-68
2024/04/01 03:34:27;;;;;;;32.78;13.38;;;;;;;;;;5032710;28;20029;-68
2024/04/01 03:37:13;;;;;;;25.92;12.07;;;;;;;;;;5028219;28;20032;-68
2024/04/01 03:39:59;;;;;;;28.65;13.45;;;;;;;;;;5013438;28;20479;-68
2024/04/01 03:42:44;;;;;;;30.35;13.07;;;;;;;;;;5013785;28;20403;-68
2024/04/01 03:45:30;;;;;;;34.70;14.63;;;;;;;;;;5027538;28;20083;-68
2024/04/01 03:48:16;;;;;;;29.45;12.77;;;;;;;;;;5033529;28;20494;-68
2024/04/01 03:51:01;;;;;;;30.75;14.90;;;;;;;;;;5032092;28;20494;-68
2024/04/01 03:53:47;;;;;;;32.47;15.52;;;;;;;;;;5019468;28;20030;-68
2024/04/01 03:56:33;;;;;;;33.42;15.30;;;;;;;;;;5019021;28;20025;-68
2024/04/01 03:59:19;;;;;;;36.97;15.30;;;;;;;;;;5018588;28;20037;-68
2024/04/01 04:02:06;;;;;;;36.65;14.52;;;;;;;;;;5033612;28;20498;-68
2024/04/01 04:04:52;;;;;;;37.70;15.38;;;;;;;;;;5032801;28;20108;-68
2024/04/01 04:07:37;;;;;;;35.95;15.52;;;;;;;;;;5032252;28;20033;-68
2024/04/01 04:10:23;;;;;;;39.22;16.27;;;;;;;;;;5031408;28;20025;-68
2024/04/01 04:13:09;;;;;;;40.75;15.80;;;;;;;;;;5025980;28;20056;-68
2024/04/01 04:15:54;;;;;;;47.58;18.05;;;;;;;;;;5032601;28;20487;-68
2024/04/01 04:18:40;;;;;;;48.05;17.55;;;;;;;;;;5031879;28;20505;-68
2024/04/01 04:21:25;;;;;;;41.70;16.25;;;;;;;;;;5033133;28;20044;-68
2024/04/01 04:24:13;;;;;;;43.60;16.30;;;;;;;;;;5032049;28;20021;-68
2024/04/01 04:26:58;;;;;;;40.88;17.17;;;;;;;;;;5032262;28;20057;-68
2024/04/01 04:29:44;;;;;;;44.35;17.20;;;;;;;;;;5031795;28;20563;-68
2024/04/01 04:32:30;;;;;;;44.45;18.60;;;;;;;;;;5031301;28;20063;-68
2024/04/01 04:35:15;;;;;;;39.30;17.88;;;;;;;;;;5031642;28;20025;-68
2024/04/01 04:38:01;;;;;;;51.63;19.58;;;;;;;;;;5032181;28;20032;-68
2024/04/01 04:40:47;;;;;;;43.00;17.90;;;;;;;;;;5031863;28;20059;-68
2024/04/01 04:43:32;;;;;;;38.13;17.05;;;;;;;;;;5031194;28;20083;-68
2024/04/01 04:46:18;;;;;;;52.40;18.23;;;;;;;;;;5019294;28;20022;-68
2024/04/01 04:49:04;;;;;;;46.95;18.98;;;;;;;;;;5012953;28;20113;-68
2024/04/01 04:51:50;;;;;;;44.88;19.50;;;;;;;;;;5014237;28;20079;-67
2024/04/01 04:54:36;;;;;;;39.78;17.85;;;;;;;;;;5031213;28;20025;-68
2024/04/01 04:57:22;;;;;;;47.30;17.75;;;;;;;;;;5032276;28;20021;-68
2024/04/01 05:00:23;;;;;;;41.53;18.20;;;;;;;;;;5028595;28;20033;-68
2024/04/01 05:03:08;;;;;;;48.20;19.58;;;;;;;;;;5020961;28;20048;-68
2024/04/01 05:05:54;;;;;;;47.25;18.95;;;;;;;;;;5032078;28;20095;-68
2024/04/01 05:08:39;;;;;;;45.78;18.17;;;;;;;;;;5024558;28;20033;-68
2024/04/01 05:11:26;;;;;;;46.45;18.75;;;;;;;;;;5013090;28;20029;-68
2024/04/01 05:14:12;;;;;;;48.88;19.95;;;;;;;;;;5014291;28;20100;-68
2024/04/01 05:16:58;;;;;;;40.45;16.63;;;;;;;;;;5013252;28;20040;-68
2024/04/01 05:19:43;;;;;;;45.40;19.80;;;;;;;;;;5012532;28;20026;-68
2024/04/01 05:22:29;;;;;;;50.30;18.88;;;;;;;;;;5030863;28;20521;-68
2024/04/01 05:25:15;;;;;;;50.20;21.17;;;;;;;;;;5035969;28;20025;-68
2024/04/01 05:28:00;;;;;;;51.03;21.13;;;;;;;;;;5035825;28;20486;-68
2024/04/01 05:30:52;;;;;;;51.08;19.02;;;;;;;;;;5029300;28;20029;-68
2024/04/01 05:33:38;;;;;;;50.10;20.63;;;;;;;;;;5035284;28;20391;-68
2024/04/01 05:36:28;;;;;;;51.15;18.27;;;;;;;;;;5035819;28;20117;-68
2024/04/01 05:39:14;;;;;;;45.72;19.42;;;;;;;;;;5035906;28;20029;-68
2024/04/01 05:41:59;;;;;;;45.70;17.77;;;;;;;;;;5035411;28;20028;-68
2024/04/01 05:44:46;;;;;;;44.17;18.10;;;;;;;;;;5030283;28;20018;-68
2024/04/01 05:47:31;;;;;;;45.58;18.13;;;;;;;;;;5016117;28;20029;-68
2024/04/01 05:50:20;;;;;;;52.45;19.70;;;;;;;;;;5015843;28;20415;-68
2024/04/01 05:53:06;;;;;;;52.95;19.58;;;;;;;;;;5016660;28;20116;-68
2024/04/01 05:55:51;;;;;;;45.08;18.88;;;;;;;;;;5015504;28;20033;-68
2024/04/01 05:58:37;;;;;;;50.35;19.75;;;;;;;;;;5015569;28;20348;-68
2024/04/01 06:01:23;;;;;;;50.05;18.50;;;;;;;;;;5014378;28;20522;-68
2024/04/01 06:04:09;;;;;;;49.90;20.13;;;;;;;;;;5041561;22;20100;-67
2024/04/01 06:06:54;;;;;;;49.92;19.77;;;;;;;;;;5053662;28;20035;-67
2024/04/01 06:09:40;;;;;;;57.03;20.85;;;;;;;;;;5034738;28;20026;-67
2024/04/01 06:12:26;;;;;;;51.30;21.00;;;;;;;;;;5035740;28;20029;-67
2024/04/01 06:15:12;;;;;;;51.90;20.08;;;;;;;;;;5036544;28;20030;-67
2024/04/01 06:17:58;;;;;;;52.35;20.17;;;;;;;;;;5015225;28;20017;-67
2024/04/01 06:20:43;;;;;;;49.63;19.02;;;;;;;;;;5032965;28;20021;-67
2024/04/01 06:23:29;;;;;;;54.20;21.25;;;;;;;;;;5033309;28;20025;-67
2024/04/01 06:26:15;;;;;;;42.40;19.40;;;;;;;;;;5034771;28;20044;-67
2024/04/01 06:29:01;;;;;;;48.47;20.50;;;;;;;;;;5033264;28;20018;-67
2024/04/01 06:31:46;;;;;;;44.92;20.40;;;;;;;;;;5033931;28;20029;-67
2024/04/01 06:34:32;;;;;;;43.65;17.73;;;;;;;;;;5034609;28;20017;-68
2024/04/01 06:37:18;;;;;;;57.28;20.88;;;;;;;;;;5033889;28;20026;-67
2024/04/01 06:40:04;;;;;;;44.58;20.13;;;;;;;;;;5033927;28;20025;-68
2024/04/01 06:42:50;;;;;;;49.55;20.25;;;;;;;;;;5034446;28;20075;-67
2024/04/01 06:45:35;;;;;;;44.53;18.58;;;;;;;;;;5034427;28;20406;-67
2024/04/01 06:48:22;;;;;;;44.83;18.85;;;;;;;;;;5034709;28;20021;-67
2024/04/01 06:51:08;;;;;;;51.35;20.17;;;;;;;;;;5033996;28;20060;-67
2024/04/01 06:53:54;;;;;;;40.10;19.48;;;;;;;;;;5033692;28;20108;-67
2024/04/01 06:56:40;;;;;;;42.67;19.35;;;;;;;;;;5034352;28;20037;-67
2024/04/01 06:59:25;;;;;;;40.33;17.20;;;;;;;;;;5033910;28;20025;-67
2024/04/01 07:02:11;;;;;;;44.13;19.80;;;;;;;;;;5033426;28;20041;-68
2024/04/01 07:04:57;;;;;;;42.65;18.88;;;;;;;;;;5034040;28;20029;-67
2024/04/01 07:07:43;;;;;;;41.55;18.38;;;;;;;;;;5033523;28;20030;-68
2024/04/01 07:10:31;;;;;;;44.10;19.55;;;;;;;;;;5035518;28;20057;-68
2024/04/01 07:13:17;;;;;;;43.35;18.58;;;;;;;;;;5034770;28;20491;-68
2024/04/01 07:16:03;;;;;;;40.97;17.98;;;;;;;;;;5034244;28;20030;-67
2024/04/01 07:18:48;;;;;;;41.60;18.25;;;;;;;;;;5034382;28;20108;-67
2024/04/01 07:21:34;;;;;;;45.30;19.27;;;;;;;;;;5033950;28;20024;-68
2024/04/01 07:24:19;;;;;;;41.80;18.35;;;;;;;;;;5034089;28;20486;-67
2024/04/01 07:27:05;;;;;;;40.95;19.20;;;;;;;;;;5034402;28;20029;-68
2024/04/01 07:29:51;;;;;;;42.95;17.25;;;;;;;;;;5033837;28;20022;-68
2024/04/01 07:32:37;;;;;;;35.72;17.00;;;;;;;;;;5034066;28;20032;-68
2024/04/01 07:35:22;;;;;;;38.78;16.80;;;;;;;;;;5032399;28;20057;-68
2024/04/01 07:38:08;;;;;;;34.25;14.43;;;;;;;;;;5034169;28;20394;-68
2024/04/01 07:40:54;;;;;;;40.00;17.67;;;;;;;;;;5033749;28;20164;-68
2024/04/01 07:43:39;;;;;;;37.15;16.65;;;;;;;;;;5033419;28;20030;-68
2024/04/01 07:46:25;;;;;;;36.67;17.67;;;;;;;;;;5034134;28;20026;-68
2024/04/01 07:49:11;;;;;;;34.92;15.88;;;;;;;;;;5033877;28;20028;-68
2024/04/01 07:51:57;;;;;;;40.08;18.13;;;;;;;;;;5033401;28;20445;-68
2024/04/01 07:54:43;;;;;;;37.13;13.85;;;;;;;;;;5033786;28;20453;-68
2024/04/01 07:57:30;;;;;;;42.10;18.00;;;;;;;;;;5033794;28;20025;-67
2024/04/01 08:00:16;;;;;;;36.40;17.33;;;;;;;;;;5033299;28;20039;-68
2024/04/01 08:03:02;;;;;;;35.97;18.05;;;;;;;;;;5034862;28;20056;-67
2024/04/01 08:05:48;;;;;;;34.40;16.40;;;;;;;;;;5033400;28;20479;-67
2024/04/01 08:08:34;;;;;;;34.50;16.85;;;;;;;;;;5033672;28;20107;-67
2024/04/01 08:11:19;;;;;;;34.88;15.93;;;;;;;;;;5034472;28;20025;-67
2024/04/01 08:14:05;;;;;;;34.67;16.23;;;;;;;;;;5033040;28;20033;-67
2024/04/01 08:16:50;;;;;;;35.00;15.95;;;;;;;;;;5033684;28;20033;-67
2024/04/01 08:19:36;;;;;;;33.60;15.55;;;;;;;;;;5033835;28;20026;-67
2024/04/01 08:22:22;;;;;;;24.92;14.32;;;;;;;;;;5033422;28;20561;-67
2024/04/01 08:25:07;;;;;;;27.77;14.02;;;;;;;;;;5033946;28;20033;-67
2024/04/01 08:27:54;;;;;;;26.67;14.50;;;;;;;;;;5033267;28;20022;-67
2024/04/01 08:30:40;;;;;;;31.63;15.43;;;;;;;;;;5031377;28;20022;-67
2024/04/01 08:33:25;;;;;;;28.50;14.80;;;;;;;;;;5032616;28;20021;-67
2024/04/01 08:36:12;;;;;;;28.63;13.70;;;;;;;;;;5033068;28;20557;-68
2024/04/01 08:38:57;;;;;;;27.75;15.88;;;;;;;;;;5024245;28;20032;-67
2024/04/01 08:41:52;;;;;;;28.20;13.98;;;;;;;;;;5032905;28;20025;-67
2024/04/01 08:44:38;;;;;;;28.35;14.10;;;;;;;;;;5031963;28;20096;-67
2024/04/01 08:47:24;;;;;;;29.73;15.00;;;;;;;;;;5031320;28;20025;-67
2024/04/01 08:50:16;;;;;;;30.33;12.40;;;;;;;;;;5032259;28;20502;-67
2024/04/01 08:53:12;;;;;;;31.30;14.60;;;;;;;;;;5029552;28;20029;-67
2024/04/01 08:55:58;;;;;;;30.42;15.18;;;;;;;;;;5033653;28;20403;-67
2024/04/01 08:58:44;;;;;;;32.55;15.55;;;;;;;;;;5030227;28;20445;-67
2024/04/01 09:01:30;;;;;;;25.42;13.18;;;;;;;;;;5016382;28;20033;-67
2024/04/01 09:04:16;;;;;;;25.52;13.98;;;;;;;;;;5025641;28;20037;-67
2024/04/01 09:07:01;;;;;;;31.75;13.93;;;;;;;;;;5036076;28;20030;-67
2024/04/01 09:09:47;;;;;;;29.27;12.93;;;;;;;;;;5035120;28;20399;-68
2024/04/01 09:12:33;;;;;;;28.92;14.02;;;;;;;;;;5035252;28;20025;-67
2024/04/01 09:15:22;;;;;;;34.13;14.25;;;;;;;;;;5035617;28;20022;-68
2024/04/01 09:18:12;;;;;;;26.38;13.95;;;;;;;;;;5036224;28;20032;-67
2024/04/01 09:20:57;;;;;;;35.35;15.02;;;;;;;;;;5033946;28;20022;-67
2024/04/01 09:23:44;;;;;;;34.80;15.85;;;;;;;;;;5035696;28;20104;-67
2024/04/01 09:26:30;;;;;;;33.33;14.18;;;;;;;;;;5034081;28;20407;-67
2024/04/01 09:29:16;;;;;;;29.45;13.68;;;;;;;;;;5034762;28;20029;-67
2024/04/01 09:32:02;;;;;;;33.05;15.15;;;;;;;;;;5035183;28;20099;-67
2024/04/01 09:34:48;;;;;;;32.13;14.88;;;;;;;;;;5032414;28;22167;-67
2024/04/01 09:37:34;;;;;;;38.22;16.63;;;;;;;;;;5035706;28;20095;-67
2024/04/01 09:40:20;;;;;;;33.15;13.73;;;;;;;;;;5034797;28;20047;-67
2024/04/01 09:43:06;;;;;;;27.65;13.57;;;;;;;;;;5036085;28;20044;-66
2024/04/01 09:45:52;;;;;;;34.85;15.02;;;;;;;;;;5035528;28;20128;-68
2024/04/01 09:48:39;;;;;;;30.27;14.93;;;;;;;;;;5035416;28;20064;-66
2024/04/01 09:51:25;;;;;;;27.52;13.13;;;;;;;;;;5034155;28;20049;-68
2024/04/01 09:54:10;;;;;;;35.95;14.38;;;;;;;;;;5033943;28;20041;-67
2024/04/01 09:57:14;;;;;;;31.17;14.52;;;;;;;;;;5035270;28;20076;-68
2024/04/01 10:00:11;;;;;;;27.23;13.95;;;;;;;;;;5034150;28;20112;-67
2024/04/01 10:03:47;;;;;;;29.52;15.65;;;;;;;;;;5034418;28;20045;-67
2024/04/01 10:07:04;;;;;;;33.67;18.27;;;;;;;;;;5033025;28;20021;-67
2024/04/01 10:10:22;;;;;;;26.83;15.32;;;;;;;;;;5015306;28;20129;-67
2024/04/01 10:13:38;;;;;;;29.27;14.75;;;;;;;;;;5022183;28;20030;-67
2024/04/01 10:16:42;;;;;;;30.60;13.48;;;;;;;;;;5014389;28;20026;-67
2024/04/01 10:19:46;;;;;;;24.67;12.27;;;;;;;;;;5021569;28;20027;-67
2024/04/01 10:23:03;;;;;;;25.67;12.70;;;;;;;;;;5033869;28;20033;-67
2024/04/01 10:26:22;;;;;;;26.33;13.65;;;;;;;;;;5034040;28;20064;-67
2024/04/01 10:29:43;;;;;;;20.95;10.95;;;;;;;;;;5033686;28;20550;-67
2024/04/01 10:33:00;;;;;;;26.27;13.05;;;;;;;;;;5032937;28;20026;-67
2024/04/01 10:36:14;;;;;;;25.40;12.93;;;;;;;;;;5033321;28;20037;-67
2024/04/01 10:39:06;;;;;;;27.67;12.55;;;;;;;;;;5033466;28;20034;-67
2024/04/01 10:42:06;;;;;;;26.10;13.48;;;;;;;;;;5034058;28;20025;-67
2024/04/01 10:45:20;;;;;;;23.83;13.40;;;;;;;;;;5021782;28;59871;-67
2024/04/01 10:51:02;;;;;;;29.42;13.50;;;;;;;;;;5048666;27;20404;-66
2024/04/01 10:53:49;;;;;;;32.90;13.50;;;;;;;;;;5066784;28;20052;-65
2024/04/01 10:56:52;;;;;;;30.83;13.10;;;;;;;;;;5059910;28;20047;-66
2024/04/01 10:59:55;;;;;;;32.47;13.48;;;;;;;;;;5028233;28;20038;-66
2024/04/01 11:04:02;;;;;;;31.45;14.93;;;;;;;;;;5025096;28;20741;-66
2024/04/01 11:06:37;;;;;;;36.50;15.98;;;;;;;;;;5012073;28;20116;-65
2024/04/01 11:09:12;;;;;;;33.83;14.68;;;;;;;;;;5024293;28;20077;-66
2024/04/01 11:12:12;;;;;;;35.60;16.35;;;;;;;;;;5019855;28;20105;-66
2024/04/01 11:14:39;;;;;;;30.92;12.30;;;;;;;;;;5010325;28;20026;-66
2024/04/01 11:17:07;;;;;;;29.73;13.43;;;;;;;;;;5010175;28;20037;-65
2024/04/01 11:19:56;;;;;;;32.45;12.93;;;;;;;;;;5025937;28;20053;-65
2024/04/01 11:22:32;;;;;;;39.75;14.93;;;;;;;;;;5044974;28;20112;-65
2024/04/01 11:25:11;;;;;;;31.55;13.52;;;;;;;;;;5025597;28;20044;-65
2024/04/01 11:27:59;;;;;;;28.08;13.57;;;;;;;;;;5034245;28;20034;-65
2024/04/01 11:30:26;;;;;;;30.60;14.40;;;;;;;;;;5028159;28;20124;-65
2024/04/01 11:33:17;;;;;;;24.73;11.70;;;;;;;;;;5043714;28;20604;-65
2024/04/01 11:35:47;;;;;;;31.20;12.75;;;;;;;;;;5033227;28;20045;-65
2024/04/01 11:38:29;;;;;;;22.65;11.75;;;;;;;;;;5038965;28;20029;-66
2024/04/01 11:40:54;;;;;;;27.60;12.80;;;;;;;;;;5034166;28;20096;-65
2024/04/01 11:43:21;;;;;;;25.10;11.95;;;;;;;;;;5029589;28;20034;-66
2024/04/01 11:45:47;;;;;;;29.85;12.40;;;;;;;;;;5030370;28;20071;-65
2024/04/01 11:48:17;;;;;;;26.38;12.18;;;;;;;;;;5027289;28;20057;-65
2024/04/01 11:50:53;;;;;;;27.30;12.68;;;;;;;;;;5008555;28;20041;-66
2024/04/01 11:53:19;;;;;;;28.30;12.60;;;;;;;;;;5024180;28;20022;-66
2024/04/01 11:56:00;;;;;;;30.40;13.60;;;;;;;;;;5029010;28;20022;-66
2024/04/01 11:58:26;;;;;;;23.65;11.75;;;;;;;;;;5028981;28;20028;-66
2024/04/01 12:00:57;;;;;;;28.30;11.52;;;;;;;;;;5028254;28;20022;-66
2024/04/01 12:03:24;;;;;;;25.17;10.93;;;;;;;;;;5029083;28;20038;-65
2024/04/01 12:05:51;;;;;;;24.70;11.73;;;;;;;;;;5042990;22;20052;-67
2024/04/01 12:08:24;;;;;;;28.52;13.55;;;;;;;;;;5021125;28;20030;-67
2024/04/01 12:10:49;;;;;;;29.75;12.75;;;;;;;;;;5018637;28;20033;-67
2024/04/01 12:13:16;;;;;;;25.85;12.10;;;;;;;;;;5024875;28;20391;-67
2024/04/01 12:15:44;;;;;;;28.55;12.48;;;;;;;;;;5014284;28;20022;-67
2024/04/01 12:18:11;;;;;;;28.42;12.48;;;;;;;;;;5015381;28;20060;-66
2024/04/01 12:20:39;;;;;;;27.80;13.30;;;;;;;;;;5015755;28;20109;-67
2024/04/01 12:23:06;;;;;;;25.83;16.25;;;;;;;;;;5014418;28;20026;-67
2024/04/01 12:25:31;;;;;;;27.08;14.93;;;;;;;;;;5010945;28;20021;-67
2024/04/01 12:27:58;;;;;;;23.58;11.75;;;;;;;;;;4995482;28;20093;-67
2024/04/01 12:30:27;;;;;;;26.98;12.65;;;;;;;;;;5011541;28;20472;-67
2024/04/01 12:32:54;;;;;;;25.13;12.68;;;;;;;;;;5001761;28;20026;-67
2024/04/01 12:35:20;;;;;;;24.80;11.73;;;;;;;;;;4994443;28;20115;-67
2024/04/01 12:37:48;;;;;;;24.45;11.38;;;;;;;;;;5001678;28;20109;-67
2024/04/01 12:40:15;;;;;;;32.58;13.38;;;;;;;;;;5011316;28;20080;-67
2024/04/01 12:42:43;;;;;;;25.75;11.85;;;;;;;;;;5015118;28;20053;-67
2024/04/01 12:45:10;;;;;;;25.33;12.93;;;;;;;;;;4995558;28;20030;-67
2024/04/01 12:47:36;;;;;;;24.88;11.88;;;;;;;;;;5011885;28;20029;-67
2024/04/01 12:50:02;;;;;;;32.75;14.00;;;;;;;;;;5013689;28;20034;-66
2024/04/01 12:52:56;;;;;;;25.92;11.02;;;;;;;;;;5014249;28;20036;-67
2024/04/01 12:55:23;;;;;;;23.40;11.20;;;;;;;;;;5005771;28;20017;-67
2024/04/01 12:58:03;;;;;;;30.73;14.95;;;;;;;;;;5002307;28;20034;-67
2024/04/01 13:00:30;;;;;;;27.85;12.13;;;;;;;;;;5013971;28;20026;-67
2024/04/01 13:03:28;;;;;;;28.63;13.05;;;;;;;;;;4994339;28;20038;-67
2024/04/01 13:06:20;;;;;;;26.80;12.50;;;;;;;;;;5003387;28;20041;-67
2024/04/01 13:09:05;;;;;;;27.63;14.38;;;;;;;;;;4995243;28;20031;-67
2024/04/01 13:11:46;;;;;;;36.15;16.77;;;;;;;;;;5016687;28;20038;-67
2024/04/01 13:14:24;;;;;;;31.90;14.27;;;;;;;;;;4994255;28;20076;-67
2024/04/01 13:17:02;;;;;;;33.35;14.00;;;;;;;;;;5012530;28;20376;-67
2024/04/01 13:19:35;;;;;;;27.23;13.18;;;;;;;;;;5027516;28;20499;-67
2024/04/01 13:22:12;;;;;;;29.30;13.30;;;;;;;;;;5014270;28;20021;-67
2024/04/01 13:24:41;;;;;;;27.88;13.77;;;;;;;;;;5011065;28;20026;-67
2024/04/01 13:27:34;;;;;;;30.25;13.75;;;;;;;;;;5012885;28;20040;-67
2024/04/01 13:30:25;;;;;;;30.27;13.73;;;;;;;;;;5010150;28;20033;-67
2024/04/01 13:32:59;;;;;;;30.80;12.77;;;;;;;;;;4997168;28;20129;-67
2024/04/01 13:35:58;;;;;;;32.92;15.57;;;;;;;;;;5011192;28;20049;-67
2024/04/01 13:38:35;;;;;;;30.15;14.70;;;;;;;;;;4994929;28;20028;-67
2024/04/01 13:41:21;;;;;;;26.55;13.65;;;;;;;;;;5009384;28;20049;-67
2024/04/01 13:43:52;;;;;;;31.60;15.10;;;;;;;;;;4993232;28;20026;-67
2024/04/01 13:46:51;;;;;;;42.38;18.23;;;;;;;;;;4996970;28;20084;-67
2024/04/01 13:49:56;;;;;;;34.30;14.50;;;;;;;;;;5009587;28;20041;-67
2024/04/01 13:52:57;;;;;;;30.42;13.48;;;;;;;;;;5001023;28;20101;-67
2024/04/01 13:55:30;;;;;;;36.45;17.35;;;;;;;;;;4996656;28;20065;-67
2024/04/01 13:58:09;;;;;;;30.08;13.63;;;;;;;;;;5009462;28;20499;-67
2024/04/01 14:01:12;;;;;;;39.40;15.48;;;;;;;;;;5015792;28;20061;-67
2024/04/01 14:03:53;;;;;;;38.08;17.13;;;;;;;;;;4975629;28;20054;-67
2024/04/01 14:07:02;;;;;;;34.05;16.95;;;;;;;;;;5012251;28;20101;-67
2024/04/01 14:09:48;;;;;;;32.03;17.30;;;;;;;;;;4975600;28;20082;-67
2024/04/01 14:12:22;;;;;;;31.85;15.15;;;;;;;;;;4990919;28;20042;-67
2024/04/01 14:14:55;;;;;;;35.30;16.13;;;;;;;;;;4993134;28;20100;-67
2024/04/01 14:17:30;;;;;;;33.42;16.17;;;;;;;;;;5014261;28;20018;-67
2024/04/01 14:20:09;;;;;;;36.65;16.17;;;;;;;;;;5013401;28;20129;-67
2024/04/01 14:22:35;;;;;;;39.22;16.38;;;;;;;;;;5028814;28;20038;-67
2024/04/01 14:25:01;;;;;;;35.67;17.42;;;;;;;;;;4993678;28;20484;-67
2024/04/01 14:27:28;;;;;;;32.35;14.82;;;;;;;;;;5001340;28;20029;-67
2024/04/01 14:29:53;;;;;;;33.08;15.38;;;;;;;;;;4993935;28;20026;-67
2024/04/01 14:32:19;;;;;;;32.15;16.52;;;;;;;;;;4993937;28;20376;-67
2024/04/01 14:34:44;;;;;;;33.03;14.93;;;;;;;;;;4997417;28;20488;-67
2024/04/01 14:37:10;;;;;;;32.85;15.02;;;;;;;;;;4993601;28;20048;-67
2024/04/01 14:39:36;;;;;;;37.97;15.98;;;;;;;;;;5008809;28;20022;-67
2024/04/01 14:42:02;;;;;;;33.30;15.93;;;;;;;;;;5000914;28;20058;-67
2024/04/01 14:44:27;;;;;;;35.65;16.75;;;;;;;;;;4993704;28;20069;-67
2024/04/01 14:46:53;;;;;;;34.78;15.52;;;;;;;;;;4995103;28;20028;-67
2024/04/01 14:49:18;;;;;;;28.48;14.63;;;;;;;;;;5010204;28;20088;-67
2024/04/01 14:51:43;;;;;;;39.70;16.08;;;;;;;;;;5012952;28;20026;-67
2024/04/01 14:54:09;;;;;;;35.33;15.15;;;;;;;;;;5011393;28;20018;-66
2024/04/01 14:56:34;;;;;;;32.45;14.38;;;;;;;;;;5009424;28;20036;-66
2024/04/01 14:59:00;;;;;;;30.67;14.00;;;;;;;;;;5012702;28;20125;-67
2024/04/01 15:01:25;;;;;;;32.22;14.07;;;;;;;;;;5010407;28;20497;-66
2024/04/01 15:03:51;;;;;;;28.45;14.10;;;;;;;;;;5006418;28;20046;-66
2024/04/01 15:06:21;;;;;;;31.05;13.50;;;;;;;;;;5012591;28;20069;-67
2024/04/01 15:08:47;;;;;;;27.83;12.82;;;;;;;;;;5027617;28;20061;-67
2024/04/01 15:11:12;;;;;;;25.17;11.25;;;;;;;;;;5003643;28;20030;-66
2024/04/01 15:13:41;;;;;;;21.95;11.30;;;;;;;;;;5014663;28;20387;-66
2024/04/01 15:16:15;;;;;;;20.55;11.60;;;;;;;;;;4993251;28;20022;-67
2024/04/01 15:18:41;;;;;;;23.63;12.88;;;;;;;;;;5000105;28;20030;-67
2024/04/01 15:21:08;;;;;;;25.40;11.85;;;;;;;;;;4993460;28;20022;-66
2024/04/01 15:23:34;;;;;;;22.35;10.65;;;;;;;;;;5019736;28;20037;-66
2024/04/01 15:25:59;;;;;;;25.88;11.90;;;;;;;;;;5003597;28;20026;-66
2024/04/01 15:28:25;;;;;;;25.17;10.68;;;;;;;;;;5032576;28;20022;-67
2024/04/01 15:30:51;;;;;;;23.25;12.25;;;;;;;;;;5030464;28;20394;-67
2024/04/01 15:33:17;;;;;;;25.38;12.40;;;;;;;;;;5006638;28;20022;-67
2024/04/01 15:35:44;;;;;;;28.85;12.95;;;;;;;;;;5012481;28;20021;-67
2024/04/01 15:38:10;;;;;;;22.58;10.70;;;;;;;;;;5012636;28;20129;-67
2024/04/01 15:40:36;;;;;;;21.27;10.05;;;;;;;;;;5012670;28;20504;-67
2024/04/01 15:43:02;;;;;;;21.25;10.55;;;;;;;;;;5007699;28;20038;-67
2024/04/01 15:45:28;;;;;;;27.63;13.38;;;;;;;;;;5011085;28;20411;-67
2024/04/01 15:47:53;;;;;;;25.13;12.77;;;;;;;;;;5009804;28;20022;-67
2024/04/01 15:50:18;;;;;;;22.27;11.27;;;;;;;;;;5016098;28;20025;-67
2024/04/01 15:52:44;;;;;;;24.60;12.15;;;;;;;;;;5012910;28;20504;-66
2024/04/01 15:55:09;;;;;;;26.92;12.70;;;;;;;;;;5001161;28;20033;-67